Terminal Aerodrome Forecast
Issued by NWS Riverton, WY

Home | Current Version | Previous Version | Text Only | Print | Product List | Glossary On
Versions: 1 2 3 4 5 6 7 8 9 10 11 12 13 14
000
FTUS45 KRIW 251700
TAFRIW
TAF
KRIW 251739Z 2518/2618 24010KT P6SM BKN120
     FM252200 31011KT P6SM VCSH SCT040 BKN080
     FM260300 01007KT 3SM -SN SCT010 OVC018
     FM261400 04006KT P6SM VCSH SCT020 BKN050=

USA.gov is the U.S. government's official web portal to all federal, state and local government web resources and services.